sensor_id;sensor_type;location;lat;lon;timestamp;P1;durP1;ratioP1;P2;durP2;ratioP2
40745;SDS011;26454;51.164;4.488;2023-08-07T00:01:20;9.73;;;3.97;;
40745;SDS011;26454;51.164;4.488;2023-08-07T00:03:46;11.20;;;4.10;;
40745;SDS011;26454;51.164;4.488;2023-08-07T00:06:12;9.80;;;3.83;;
40745;SDS011;26454;51.164;4.488;2023-08-07T00:08:38;9.80;;;3.47;;
40745;SDS011;26454;51.164;4.488;2023-08-07T00:11:08;11.20;;;4.15;;
40745;SDS011;26454;51.164;4.488;2023-08-07T00:13:34;10.52;;;3.67;;
40745;SDS011;26454;51.164;4.488;2023-08-07T00:16:00;11.30;;;3.53;;
40745;SDS011;26454;51.164;4.488;2023-08-07T00:18:27;9.18;;;3.50;;
40745;SDS011;26454;51.164;4.488;2023-08-07T00:20:53;11.13;;;3.58;;
40745;SDS011;26454;51.164;4.488;2023-08-07T00:23:19;10.75;;;3.15;;
40745;SDS011;26454;51.164;4.488;2023-08-07T00:25:45;12.68;;;3.83;;
40745;SDS011;26454;51.164;4.488;2023-08-07T00:28:11;12.10;;;4.57;;
40745;SDS011;26454;51.164;4.488;2023-08-07T00:30:37;13.65;;;3.58;;
40745;SDS011;26454;51.164;4.488;2023-08-07T00:33:03;10.80;;;3.17;;
40745;SDS011;26454;51.164;4.488;2023-08-07T00:35:29;10.98;;;3.47;;
40745;SDS011;26454;51.164;4.488;2023-08-07T00:37:55;8.52;;;4.00;;
40745;SDS011;26454;51.164;4.488;2023-08-07T00:40:21;14.57;;;4.40;;
40745;SDS011;26454;51.164;4.488;2023-08-07T00:42:47;11.68;;;3.80;;
40745;SDS011;26454;51.164;4.488;2023-08-07T00:45:13;18.13;;;4.70;;
40745;SDS011;26454;51.164;4.488;2023-08-07T00:47:39;16.25;;;4.60;;
40745;SDS011;26454;51.164;4.488;2023-08-07T00:50:05;9.90;;;4.40;;
40745;SDS011;26454;51.164;4.488;2023-08-07T00:52:31;13.95;;;4.03;;
40745;SDS011;26454;51.164;4.488;2023-08-07T00:54:57;8.55;;;4.65;;
40745;SDS011;26454;51.164;4.488;2023-08-07T00:57:24;13.95;;;4.53;;
40745;SDS011;26454;51.164;4.488;2023-08-07T00:59:50;11.63;;;4.15;;
40745;SDS011;26454;51.164;4.488;2023-08-07T01:02:16;11.82;;;3.78;;
40745;SDS011;26454;51.164;4.488;2023-08-07T01:04:42;11.88;;;3.85;;
40745;SDS011;26454;51.164;4.488;2023-08-07T01:07:08;14.65;;;3.83;;
40745;SDS011;26454;51.164;4.488;2023-08-07T01:09:35;14.15;;;4.70;;
40745;SDS011;26454;51.164;4.488;2023-08-07T01:12:06;11.25;;;3.42;;
40745;SDS011;26454;51.164;4.488;2023-08-07T01:14:37;12.27;;;4.03;;
40745;SDS011;26454;51.164;4.488;2023-08-07T01:17:06;11.75;;;4.13;;
40745;SDS011;26454;51.164;4.488;2023-08-07T01:19:32;14.20;;;4.13;;
40745;SDS011;26454;51.164;4.488;2023-08-07T01:24:36;13.43;;;4.43;;
40745;SDS011;26454;51.164;4.488;2023-08-07T01:29:42;19.13;;;3.83;;
40745;SDS011;26454;51.164;4.488;2023-08-07T01:32:09;11.23;;;3.90;;
40745;SDS011;26454;51.164;4.488;2023-08-07T01:34:37;12.52;;;4.00;;
40745;SDS011;26454;51.164;4.488;2023-08-07T01:37:05;13.15;;;3.80;;
40745;SDS011;26454;51.164;4.488;2023-08-07T01:39:32;11.95;;;3.13;;
40745;SDS011;26454;51.164;4.488;2023-08-07T01:41:59;9.23;;;3.33;;
40745;SDS011;26454;51.164;4.488;2023-08-07T01:44:27;11.38;;;3.75;;
40745;SDS011;26454;51.164;4.488;2023-08-07T01:46:53;12.70;;;3.58;;
40745;SDS011;26454;51.164;4.488;2023-08-07T01:49:19;13.15;;;3.88;;
40745;SDS011;26454;51.164;4.488;2023-08-07T01:51:45;7.72;;;3.40;;
40745;SDS011;26454;51.164;4.488;2023-08-07T01:54:11;8.57;;;3.22;;
40745;SDS011;26454;51.164;4.488;2023-08-07T01:56:37;8.35;;;2.75;;
40745;SDS011;26454;51.164;4.488;2023-08-07T01:59:03;8.70;;;3.08;;
40745;SDS011;26454;51.164;4.488;2023-08-07T02:01:29;9.80;;;2.83;;
40745;SDS011;26454;51.164;4.488;2023-08-07T02:03:55;7.57;;;3.05;;
40745;SDS011;26454;51.164;4.488;2023-08-07T02:06:21;7.15;;;3.15;;
40745;SDS011;26454;51.164;4.488;2023-08-07T02:08:47;5.85;;;2.53;;
40745;SDS011;26454;51.164;4.488;2023-08-07T02:11:14;12.05;;;3.60;;
40745;SDS011;26454;51.164;4.488;2023-08-07T02:13:40;12.05;;;3.42;;
40745;SDS011;26454;51.164;4.488;2023-08-07T02:16:06;10.45;;;3.47;;
40745;SDS011;26454;51.164;4.488;2023-08-07T02:18:32;7.47;;;2.92;;
40745;SDS011;26454;51.164;4.488;2023-08-07T02:20:58;7.57;;;2.70;;
40745;SDS011;26454;51.164;4.488;2023-08-07T02:23:24;6.20;;;2.90;;
40745;SDS011;26454;51.164;4.488;2023-08-07T02:25:51;18.67;;;3.75;;
40745;SDS011;26454;51.164;4.488;2023-08-07T02:28:17;6.60;;;3.35;;
40745;SDS011;26454;51.164;4.488;2023-08-07T02:30:44;7.35;;;3.45;;
40745;SDS011;26454;51.164;4.488;2023-08-07T02:33:13;8.98;;;3.38;;
40745;SDS011;26454;51.164;4.488;2023-08-07T02:35:39;8.43;;;3.25;;
40745;SDS011;26454;51.164;4.488;2023-08-07T02:38:05;8.15;;;3.30;;
40745;SDS011;26454;51.164;4.488;2023-08-07T02:40:31;9.18;;;3.15;;
40745;SDS011;26454;51.164;4.488;2023-08-07T02:42:58;8.45;;;3.03;;
40745;SDS011;26454;51.164;4.488;2023-08-07T02:45:24;7.22;;;2.83;;
40745;SDS011;26454;51.164;4.488;2023-08-07T02:47:50;9.77;;;4.38;;
40745;SDS011;26454;51.164;4.488;2023-08-07T02:50:16;11.02;;;3.85;;
40745;SDS011;26454;51.164;4.488;2023-08-07T02:52:42;7.18;;;3.47;;
40745;SDS011;26454;51.164;4.488;2023-08-07T02:55:08;11.98;;;3.40;;
40745;SDS011;26454;51.164;4.488;2023-08-07T02:57:34;14.13;;;4.43;;
40745;SDS011;26454;51.164;4.488;2023-08-07T03:00:00;12.57;;;3.53;;
40745;SDS011;26454;51.164;4.488;2023-08-07T03:02:26;13.20;;;3.58;;
40745;SDS011;26454;51.164;4.488;2023-08-07T03:04:53;13.50;;;3.50;;
40745;SDS011;26454;51.164;4.488;2023-08-07T03:07:19;6.45;;;3.15;;
40745;SDS011;26454;51.164;4.488;2023-08-07T03:09:46;12.00;;;3.25;;
40745;SDS011;26454;51.164;4.488;2023-08-07T03:12:12;6.40;;;3.15;;
40745;SDS011;26454;51.164;4.488;2023-08-07T03:14:38;19.80;;;3.92;;
40745;SDS011;26454;51.164;4.488;2023-08-07T03:17:04;10.65;;;3.45;;
40745;SDS011;26454;51.164;4.488;2023-08-07T03:19:30;9.30;;;3.38;;
40745;SDS011;26454;51.164;4.488;2023-08-07T03:21:56;9.48;;;3.45;;
40745;SDS011;26454;51.164;4.488;2023-08-07T03:24:22;6.25;;;2.88;;
40745;SDS011;26454;51.164;4.488;2023-08-07T03:26:48;12.13;;;3.63;;
40745;SDS011;26454;51.164;4.488;2023-08-07T03:29:14;11.90;;;3.28;;
40745;SDS011;26454;51.164;4.488;2023-08-07T03:31:41;10.13;;;4.00;;
40745;SDS011;26454;51.164;4.488;2023-08-07T03:34:07;8.63;;;2.80;;
40745;SDS011;26454;51.164;4.488;2023-08-07T03:36:33;6.47;;;3.90;;
40745;SDS011;26454;51.164;4.488;2023-08-07T03:38:59;9.18;;;3.28;;
40745;SDS011;26454;51.164;4.488;2023-08-07T03:41:25;8.70;;;3.47;;
40745;SDS011;26454;51.164;4.488;2023-08-07T03:43:51;11.52;;;3.33;;
40745;SDS011;26454;51.164;4.488;2023-08-07T03:46:17;7.35;;;2.75;;
40745;SDS011;26454;51.164;4.488;2023-08-07T03:48:43;6.18;;;3.05;;
40745;SDS011;26454;51.164;4.488;2023-08-07T03:51:09;6.40;;;3.15;;
40745;SDS011;26454;51.164;4.488;2023-08-07T03:53:36;8.55;;;3.05;;
40745;SDS011;26454;51.164;4.488;2023-08-07T03:56:02;8.85;;;3.15;;
40745;SDS011;26454;51.164;4.488;2023-08-07T03:58:28;10.50;;;3.05;;
40745;SDS011;26454;51.164;4.488;2023-08-07T04:00:55;6.00;;;2.80;;
40745;SDS011;26454;51.164;4.488;2023-08-07T04:03:21;5.50;;;3.28;;
40745;SDS011;26454;51.164;4.488;2023-08-07T04:05:51;6.43;;;2.97;;
40745;SDS011;26454;51.164;4.488;2023-08-07T04:08:17;10.00;;;3.47;;
40745;SDS011;26454;51.164;4.488;2023-08-07T04:10:43;11.07;;;3.83;;
40745;SDS011;26454;51.164;4.488;2023-08-07T04:13:09;11.35;;;4.10;;
40745;SDS011;26454;51.164;4.488;2023-08-07T04:15:35;6.78;;;3.20;;
40745;SDS011;26454;51.164;4.488;2023-08-07T04:18:01;10.20;;;3.38;;
40745;SDS011;26454;51.164;4.488;2023-08-07T04:20:27;12.85;;;3.75;;
40745;SDS011;26454;51.164;4.488;2023-08-07T04:22:53;7.47;;;3.05;;
40745;SDS011;26454;51.164;4.488;2023-08-07T04:25:19;6.93;;;3.38;;
40745;SDS011;26454;51.164;4.488;2023-08-07T04:27:45;9.15;;;3.35;;
40745;SDS011;26454;51.164;4.488;2023-08-07T04:30:12;15.50;;;3.85;;
40745;SDS011;26454;51.164;4.488;2023-08-07T04:32:38;7.53;;;3.30;;
40745;SDS011;26454;51.164;4.488;2023-08-07T04:35:04;7.78;;;3.45;;
40745;SDS011;26454;51.164;4.488;2023-08-07T04:37:30;9.13;;;3.20;;
40745;SDS011;26454;51.164;4.488;2023-08-07T04:39:56;8.65;;;2.97;;
40745;SDS011;26454;51.164;4.488;2023-08-07T04:42:22;13.30;;;3.30;;
40745;SDS011;26454;51.164;4.488;2023-08-07T04:44:48;8.38;;;3.50;;
40745;SDS011;26454;51.164;4.488;2023-08-07T04:47:14;5.90;;;3.83;;
40745;SDS011;26454;51.164;4.488;2023-08-07T04:49:40;9.27;;;3.17;;
40745;SDS011;26454;51.164;4.488;2023-08-07T04:52:06;10.90;;;3.63;;
40745;SDS011;26454;51.164;4.488;2023-08-07T04:54:33;6.20;;;3.25;;
40745;SDS011;26454;51.164;4.488;2023-08-07T04:56:58;13.57;;;3.47;;
40745;SDS011;26454;51.164;4.488;2023-08-07T04:59:25;11.30;;;3.42;;
40745;SDS011;26454;51.164;4.488;2023-08-07T05:01:56;7.55;;;3.38;;
40745;SDS011;26454;51.164;4.488;2023-08-07T05:04:22;9.77;;;3.60;;
40745;SDS011;26454;51.164;4.488;2023-08-07T05:06:48;6.68;;;3.13;;
40745;SDS011;26454;51.164;4.488;2023-08-07T05:09:14;9.10;;;3.53;;
40745;SDS011;26454;51.164;4.488;2023-08-07T05:11:40;9.00;;;4.13;;
40745;SDS011;26454;51.164;4.488;2023-08-07T05:14:06;10.73;;;4.15;;
40745;SDS011;26454;51.164;4.488;2023-08-07T05:16:32;4.50;;;3.42;;
40745;SDS011;26454;51.164;4.488;2023-08-07T05:18:58;8.95;;;3.72;;
40745;SDS011;26454;51.164;4.488;2023-08-07T05:21:24;11.38;;;3.88;;
40745;SDS011;26454;51.164;4.488;2023-08-07T05:23:50;7.38;;;4.05;;
40745;SDS011;26454;51.164;4.488;2023-08-07T05:26:20;10.85;;;3.63;;
40745;SDS011;26454;51.164;4.488;2023-08-07T05:28:46;8.63;;;4.18;;
40745;SDS011;26454;51.164;4.488;2023-08-07T05:31:12;8.30;;;4.55;;
40745;SDS011;26454;51.164;4.488;2023-08-07T05:33:38;12.77;;;4.20;;
40745;SDS011;26454;51.164;4.488;2023-08-07T05:36:04;9.00;;;4.13;;
40745;SDS011;26454;51.164;4.488;2023-08-07T05:38:31;13.05;;;3.58;;
40745;SDS011;26454;51.164;4.488;2023-08-07T05:40:57;7.85;;;3.70;;
40745;SDS011;26454;51.164;4.488;2023-08-07T05:43:23;10.18;;;3.72;;
40745;SDS011;26454;51.164;4.488;2023-08-07T05:45:49;9.15;;;4.43;;
40745;SDS011;26454;51.164;4.488;2023-08-07T05:48:16;5.70;;;3.78;;
40745;SDS011;26454;51.164;4.488;2023-08-07T05:50:42;8.38;;;4.20;;
40745;SDS011;26454;51.164;4.488;2023-08-07T05:53:08;9.45;;;3.45;;
40745;SDS011;26454;51.164;4.488;2023-08-07T05:55:34;4.25;;;2.95;;
40745;SDS011;26454;51.164;4.488;2023-08-07T05:58:00;10.60;;;4.15;;
40745;SDS011;26454;51.164;4.488;2023-08-07T06:00:26;10.07;;;3.53;;
40745;SDS011;26454;51.164;4.488;2023-08-07T06:02:53;18.33;;;3.58;;
40745;SDS011;26454;51.164;4.488;2023-08-07T06:05:19;10.05;;;3.35;;
40745;SDS011;26454;51.164;4.488;2023-08-07T06:07:45;9.90;;;3.35;;
40745;SDS011;26454;51.164;4.488;2023-08-07T06:10:11;10.90;;;3.97;;
40745;SDS011;26454;51.164;4.488;2023-08-07T06:12:37;9.45;;;3.63;;
40745;SDS011;26454;51.164;4.488;2023-08-07T06:15:03;9.10;;;4.05;;
40745;SDS011;26454;51.164;4.488;2023-08-07T06:17:30;7.47;;;3.65;;
40745;SDS011;26454;51.164;4.488;2023-08-07T06:19:55;11.27;;;3.63;;
40745;SDS011;26454;51.164;4.488;2023-08-07T06:22:22;8.48;;;3.28;;
40745;SDS011;26454;51.164;4.488;2023-08-07T06:24:48;7.75;;;3.45;;
40745;SDS011;26454;51.164;4.488;2023-08-07T06:27:14;10.85;;;3.55;;
40745;SDS011;26454;51.164;4.488;2023-08-07T06:29:41;9.35;;;2.92;;
40745;SDS011;26454;51.164;4.488;2023-08-07T06:32:07;10.63;;;3.38;;
40745;SDS011;26454;51.164;4.488;2023-08-07T06:34:34;8.45;;;3.10;;
40745;SDS011;26454;51.164;4.488;2023-08-07T06:37:03;6.38;;;2.42;;
40745;SDS011;26454;51.164;4.488;2023-08-07T06:39:29;7.10;;;2.67;;
40745;SDS011;26454;51.164;4.488;2023-08-07T06:41:56;8.77;;;3.65;;
40745;SDS011;26454;51.164;4.488;2023-08-07T06:44:22;6.95;;;3.17;;
40745;SDS011;26454;51.164;4.488;2023-08-07T06:46:48;12.98;;;4.13;;
40745;SDS011;26454;51.164;4.488;2023-08-07T06:49:14;9.75;;;3.20;;
40745;SDS011;26454;51.164;4.488;2023-08-07T06:51:40;11.88;;;3.70;;
40745;SDS011;26454;51.164;4.488;2023-08-07T06:54:06;6.68;;;2.65;;
40745;SDS011;26454;51.164;4.488;2023-08-07T06:56:32;9.15;;;2.85;;
40745;SDS011;26454;51.164;4.488;2023-08-07T06:58:58;10.25;;;3.35;;
40745;SDS011;26454;51.164;4.488;2023-08-07T07:01:24;12.02;;;2.92;;
40745;SDS011;26454;51.164;4.488;2023-08-07T07:03:50;7.95;;;3.25;;
40745;SDS011;26454;51.164;4.488;2023-08-07T07:06:18;5.57;;;2.85;;
40745;SDS011;26454;51.164;4.488;2023-08-07T07:08:45;7.15;;;2.53;;
40745;SDS011;26454;51.164;4.488;2023-08-07T07:11:11;5.03;;;2.67;;
40745;SDS011;26454;51.164;4.488;2023-08-07T07:13:37;8.68;;;3.10;;
40745;SDS011;26454;51.164;4.488;2023-08-07T07:16:03;9.52;;;3.53;;
40745;SDS011;26454;51.164;4.488;2023-08-07T07:18:29;8.40;;;2.75;;
40745;SDS011;26454;51.164;4.488;2023-08-07T07:20:56;5.97;;;2.60;;
40745;SDS011;26454;51.164;4.488;2023-08-07T07:23:22;6.18;;;2.90;;
40745;SDS011;26454;51.164;4.488;2023-08-07T07:25:48;7.65;;;3.20;;
40745;SDS011;26454;51.164;4.488;2023-08-07T07:28:14;8.27;;;3.10;;
40745;SDS011;26454;51.164;4.488;2023-08-07T07:30:40;6.78;;;3.50;;
40745;SDS011;26454;51.164;4.488;2023-08-07T07:33:06;8.65;;;3.47;;
40745;SDS011;26454;51.164;4.488;2023-08-07T07:35:37;8.13;;;3.13;;
40745;SDS011;26454;51.164;4.488;2023-08-07T07:38:03;16.08;;;3.58;;
40745;SDS011;26454;51.164;4.488;2023-08-07T07:40:29;9.25;;;3.38;;
40745;SDS011;26454;51.164;4.488;2023-08-07T07:42:55;8.02;;;3.10;;
40745;SDS011;26454;51.164;4.488;2023-08-07T07:45:21;6.95;;;3.10;;
40745;SDS011;26454;51.164;4.488;2023-08-07T07:47:47;9.70;;;3.45;;
40745;SDS011;26454;51.164;4.488;2023-08-07T07:50:13;8.95;;;2.88;;
40745;SDS011;26454;51.164;4.488;2023-08-07T07:52:39;6.35;;;2.55;;
40745;SDS011;26454;51.164;4.488;2023-08-07T07:55:05;10.65;;;3.35;;
40745;SDS011;26454;51.164;4.488;2023-08-07T07:57:33;8.88;;;3.72;;
40745;SDS011;26454;51.164;4.488;2023-08-07T07:59:59;9.38;;;2.92;;
40745;SDS011;26454;51.164;4.488;2023-08-07T08:02:26;9.85;;;3.05;;
40745;SDS011;26454;51.164;4.488;2023-08-07T08:04:52;7.45;;;2.90;;
40745;SDS011;26454;51.164;4.488;2023-08-07T08:07:18;7.07;;;3.22;;
40745;SDS011;26454;51.164;4.488;2023-08-07T08:09:44;6.57;;;2.95;;
40745;SDS011;26454;51.164;4.488;2023-08-07T08:12:10;6.47;;;2.72;;
40745;SDS011;26454;51.164;4.488;2023-08-07T08:14:36;5.38;;;2.88;;
40745;SDS011;26454;51.164;4.488;2023-08-07T08:17:02;10.95;;;3.25;;
40745;SDS011;26454;51.164;4.488;2023-08-07T08:19:28;5.85;;;2.85;;
40745;SDS011;26454;51.164;4.488;2023-08-07T08:21:54;8.23;;;2.95;;
40745;SDS011;26454;51.164;4.488;2023-08-07T08:24:20;6.68;;;3.45;;
40745;SDS011;26454;51.164;4.488;2023-08-07T08:26:46;5.88;;;2.90;;
40745;SDS011;26454;51.164;4.488;2023-08-07T08:29:14;10.30;;;3.78;;
40745;SDS011;26454;51.164;4.488;2023-08-07T08:31:40;5.63;;;2.60;;
40745;SDS011;26454;51.164;4.488;2023-08-07T08:34:06;6.63;;;3.28;;
40745;SDS011;26454;51.164;4.488;2023-08-07T08:36:32;7.03;;;3.15;;
40745;SDS011;26454;51.164;4.488;2023-08-07T08:38:58;5.25;;;2.38;;
40745;SDS011;26454;51.164;4.488;2023-08-07T08:41:24;5.28;;;2.85;;
40745;SDS011;26454;51.164;4.488;2023-08-07T08:43:51;9.73;;;3.03;;
40745;SDS011;26454;51.164;4.488;2023-08-07T08:46:19;14.90;;;3.42;;
40745;SDS011;26454;51.164;4.488;2023-08-07T08:48:49;13.88;;;2.92;;
40745;SDS011;26454;51.164;4.488;2023-08-07T08:51:16;7.43;;;3.22;;
40745;SDS011;26454;51.164;4.488;2023-08-07T08:53:44;5.95;;;2.67;;
40745;SDS011;26454;51.164;4.488;2023-08-07T08:56:10;8.80;;;2.58;;
40745;SDS011;26454;51.164;4.488;2023-08-07T08:58:37;10.02;;;2.17;;
40745;SDS011;26454;51.164;4.488;2023-08-07T09:01:04;4.30;;;2.38;;
40745;SDS011;26454;51.164;4.488;2023-08-07T09:03:30;4.78;;;2.40;;
40745;SDS011;26454;51.164;4.488;2023-08-07T09:05:57;8.80;;;3.00;;
40745;SDS011;26454;51.164;4.488;2023-08-07T09:08:25;6.63;;;2.90;;
40745;SDS011;26454;51.164;4.488;2023-08-07T09:13:20;6.30;;;2.67;;
40745;SDS011;26454;51.164;4.488;2023-08-07T09:15:48;6.05;;;2.60;;
40745;SDS011;26454;51.164;4.488;2023-08-07T09:18:15;7.65;;;2.72;;
40745;SDS011;26454;51.164;4.488;2023-08-07T09:20:42;8.25;;;2.88;;
40745;SDS011;26454;51.164;4.488;2023-08-07T09:23:08;6.45;;;2.35;;
40745;SDS011;26454;51.164;4.488;2023-08-07T09:25:35;5.90;;;2.50;;
40745;SDS011;26454;51.164;4.488;2023-08-07T09:28:01;3.17;;;2.40;;
40745;SDS011;26454;51.164;4.488;2023-08-07T09:30:29;6.68;;;2.15;;
40745;SDS011;26454;51.164;4.488;2023-08-07T09:32:57;4.18;;;2.42;;
40745;SDS011;26454;51.164;4.488;2023-08-07T09:35:23;5.50;;;2.10;;
40745;SDS011;26454;51.164;4.488;2023-08-07T09:37:49;4.00;;;2.30;;
40745;SDS011;26454;51.164;4.488;2023-08-07T09:40:16;5.70;;;2.00;;
40745;SDS011;26454;51.164;4.488;2023-08-07T09:42:42;5.90;;;2.65;;
40745;SDS011;26454;51.164;4.488;2023-08-07T09:47:44;6.57;;;1.90;;
40745;SDS011;26454;51.164;4.488;2023-08-07T09:50:15;5.18;;;2.10;;
40745;SDS011;26454;51.164;4.488;2023-08-07T09:52:41;5.78;;;1.75;;
40745;SDS011;26454;51.164;4.488;2023-08-07T09:55:07;3.85;;;1.98;;
40745;SDS011;26454;51.164;4.488;2023-08-07T09:57:33;5.50;;;2.08;;
40745;SDS011;26454;51.164;4.488;2023-08-07T10:00:00;3.50;;;1.80;;
40745;SDS011;26454;51.164;4.488;2023-08-07T10:02:26;2.40;;;2.10;;
40745;SDS011;26454;51.164;4.488;2023-08-07T10:04:52;4.03;;;2.00;;
40745;SDS011;26454;51.164;4.488;2023-08-07T10:07:18;8.73;;;2.22;;
40745;SDS011;26454;51.164;4.488;2023-08-07T10:09:44;4.50;;;2.33;;
40745;SDS011;26454;51.164;4.488;2023-08-07T10:12:11;4.55;;;2.10;;
40745;SDS011;26454;51.164;4.488;2023-08-07T10:14:38;4.60;;;2.38;;
40745;SDS011;26454;51.164;4.488;2023-08-07T10:17:04;3.42;;;2.25;;
40745;SDS011;26454;51.164;4.488;2023-08-07T10:19:30;3.97;;;1.95;;
40745;SDS011;26454;51.164;4.488;2023-08-07T10:21:56;4.15;;;2.05;;
40745;SDS011;26454;51.164;4.488;2023-08-07T10:24:23;3.78;;;1.83;;
40745;SDS011;26454;51.164;4.488;2023-08-07T10:26:49;3.15;;;1.65;;
40745;SDS011;26454;51.164;4.488;2023-08-07T10:29:17;3.53;;;1.70;;
40745;SDS011;26454;51.164;4.488;2023-08-07T10:31:43;2.42;;;1.80;;
40745;SDS011;26454;51.164;4.488;2023-08-07T10:34:10;3.38;;;1.98;;
40745;SDS011;26454;51.164;4.488;2023-08-07T10:36:37;2.42;;;1.65;;
40745;SDS011;26454;51.164;4.488;2023-08-07T10:39:11;1.88;;;1.45;;
40745;SDS011;26454;51.164;4.488;2023-08-07T10:41:38;4.90;;;1.85;;
40745;SDS011;26454;51.164;4.488;2023-08-07T10:44:05;2.10;;;1.50;;
40745;SDS011;26454;51.164;4.488;2023-08-07T10:46:46;3.90;;;2.40;;
40745;SDS011;26454;51.164;4.488;2023-08-07T10:49:12;4.30;;;2.38;;
40745;SDS011;26454;51.164;4.488;2023-08-07T10:51:56;2.72;;;1.83;;
40745;SDS011;26454;51.164;4.488;2023-08-07T10:54:23;4.70;;;1.73;;
40745;SDS011;26454;51.164;4.488;2023-08-07T10:56:53;5.60;;;1.80;;
40745;SDS011;26454;51.164;4.488;2023-08-07T10:59:19;5.28;;;1.63;;
40745;SDS011;26454;51.164;4.488;2023-08-07T11:01:50;3.90;;;1.92;;
40745;SDS011;26454;51.164;4.488;2023-08-07T11:04:16;2.05;;;1.65;;
40745;SDS011;26454;51.164;4.488;2023-08-07T11:06:43;3.28;;;2.00;;
40745;SDS011;26454;51.164;4.488;2023-08-07T11:09:12;1.88;;;1.50;;
40745;SDS011;26454;51.164;4.488;2023-08-07T11:11:39;2.33;;;1.50;;
40745;SDS011;26454;51.164;4.488;2023-08-07T11:14:09;1.95;;;1.75;;
40745;SDS011;26454;51.164;4.488;2023-08-07T11:16:36;3.33;;;1.85;;
40745;SDS011;26454;51.164;4.488;2023-08-07T11:19:03;4.28;;;1.45;;
40745;SDS011;26454;51.164;4.488;2023-08-07T11:21:30;2.55;;;1.60;;
40745;SDS011;26454;51.164;4.488;2023-08-07T11:23:56;2.40;;;1.45;;
40745;SDS011;26454;51.164;4.488;2023-08-07T11:26:22;3.85;;;1.63;;
40745;SDS011;26454;51.164;4.488;2023-08-07T11:28:51;4.50;;;1.63;;
40745;SDS011;26454;51.164;4.488;2023-08-07T11:31:18;2.58;;;1.20;;
40745;SDS011;26454;51.164;4.488;2023-08-07T11:33:44;1.70;;;1.38;;
40745;SDS011;26454;51.164;4.488;2023-08-07T11:36:11;2.92;;;1.70;;
40745;SDS011;26454;51.164;4.488;2023-08-07T11:38:38;3.15;;;1.77;;
40745;SDS011;26454;51.164;4.488;2023-08-07T11:41:05;3.65;;;2.03;;
40745;SDS011;26454;51.164;4.488;2023-08-07T11:43:32;3.47;;;1.55;;
40745;SDS011;26454;51.164;4.488;2023-08-07T11:45:59;2.28;;;1.60;;
40745;SDS011;26454;51.164;4.488;2023-08-07T11:48:26;2.78;;;1.40;;
40745;SDS011;26454;51.164;4.488;2023-08-07T11:50:53;3.20;;;1.40;;
40745;SDS011;26454;51.164;4.488;2023-08-07T11:53:20;2.65;;;1.60;;
40745;SDS011;26454;51.164;4.488;2023-08-07T11:55:51;4.20;;;1.80;;
40745;SDS011;26454;51.164;4.488;2023-08-07T11:58:18;1.58;;;1.48;;
40745;SDS011;26454;51.164;4.488;2023-08-07T12:00:44;2.97;;;1.20;;
40745;SDS011;26454;51.164;4.488;2023-08-07T12:05:46;2.50;;;1.23;;
40745;SDS011;26454;51.164;4.488;2023-08-07T12:08:13;1.42;;;1.20;;
40745;SDS011;26454;51.164;4.488;2023-08-07T12:10:39;2.72;;;1.23;;
40745;SDS011;26454;51.164;4.488;2023-08-07T12:13:08;4.70;;;1.83;;
40745;SDS011;26454;51.164;4.488;2023-08-07T12:15:34;2.50;;;1.80;;
40745;SDS011;26454;51.164;4.488;2023-08-07T12:18:00;6.22;;;2.22;;
40745;SDS011;26454;51.164;4.488;2023-08-07T12:20:26;1.45;;;1.10;;
40745;SDS011;26454;51.164;4.488;2023-08-07T12:22:52;3.28;;;1.75;;
40745;SDS011;26454;51.164;4.488;2023-08-07T12:25:18;3.70;;;1.65;;
40745;SDS011;26454;51.164;4.488;2023-08-07T12:27:44;3.53;;;1.52;;
40745;SDS011;26454;51.164;4.488;2023-08-07T12:30:12;2.03;;;1.38;;
40745;SDS011;26454;51.164;4.488;2023-08-07T12:32:39;1.98;;;1.48;;
40745;SDS011;26454;51.164;4.488;2023-08-07T12:35:05;3.22;;;1.70;;
40745;SDS011;26454;51.164;4.488;2023-08-07T12:37:33;5.22;;;1.85;;
40745;SDS011;26454;51.164;4.488;2023-08-07T12:40:00;4.70;;;1.80;;
40745;SDS011;26454;51.164;4.488;2023-08-07T12:42:26;2.63;;;1.77;;
40745;SDS011;26454;51.164;4.488;2023-08-07T12:44:52;1.40;;;1.30;;
40745;SDS011;26454;51.164;4.488;2023-08-07T12:47:18;2.08;;;1.75;;
40745;SDS011;26454;51.164;4.488;2023-08-07T12:49:44;4.57;;;2.38;;
40745;SDS011;26454;51.164;4.488;2023-08-07T12:52:12;2.08;;;1.23;;
40745;SDS011;26454;51.164;4.488;2023-08-07T12:54:38;2.47;;;1.40;;
40745;SDS011;26454;51.164;4.488;2023-08-07T12:57:04;2.58;;;1.73;;
40745;SDS011;26454;51.164;4.488;2023-08-07T12:59:30;2.25;;;1.48;;
40745;SDS011;26454;51.164;4.488;2023-08-07T13:01:56;2.63;;;1.40;;
40745;SDS011;26454;51.164;4.488;2023-08-07T13:04:22;7.55;;;1.58;;
40745;SDS011;26454;51.164;4.488;2023-08-07T13:06:48;4.05;;;1.50;;
40745;SDS011;26454;51.164;4.488;2023-08-07T13:09:15;2.20;;;1.60;;
40745;SDS011;26454;51.164;4.488;2023-08-07T13:11:41;2.22;;;1.35;;
40745;SDS011;26454;51.164;4.488;2023-08-07T13:14:07;1.70;;;1.52;;
40745;SDS011;26454;51.164;4.488;2023-08-07T13:16:33;1.83;;;1.38;;
40745;SDS011;26454;51.164;4.488;2023-08-07T13:18:59;1.95;;;1.00;;
40745;SDS011;26454;51.164;4.488;2023-08-07T13:21:25;1.70;;;1.20;;
40745;SDS011;26454;51.164;4.488;2023-08-07T13:23:51;2.92;;;1.20;;
40745;SDS011;26454;51.164;4.488;2023-08-07T13:26:17;2.10;;;1.52;;
40745;SDS011;26454;51.164;4.488;2023-08-07T13:28:43;1.27;;;0.93;;
40745;SDS011;26454;51.164;4.488;2023-08-07T13:31:09;4.82;;;1.02;;
40745;SDS011;26454;51.164;4.488;2023-08-07T13:33:35;3.08;;;1.38;;
40745;SDS011;26454;51.164;4.488;2023-08-07T13:36:01;2.80;;;1.52;;
40745;SDS011;26454;51.164;4.488;2023-08-07T13:38:27;2.20;;;1.60;;
40745;SDS011;26454;51.164;4.488;2023-08-07T13:40:53;4.88;;;1.90;;
40745;SDS011;26454;51.164;4.488;2023-08-07T13:43:19;2.47;;;1.50;;
40745;SDS011;26454;51.164;4.488;2023-08-07T13:45:45;2.80;;;1.48;;
40745;SDS011;26454;51.164;4.488;2023-08-07T13:48:11;2.50;;;1.30;;
40745;SDS011;26454;51.164;4.488;2023-08-07T13:50:37;6.20;;;1.65;;
40745;SDS011;26454;51.164;4.488;2023-08-07T13:53:04;2.15;;;1.30;;
40745;SDS011;26454;51.164;4.488;2023-08-07T13:55:30;1.45;;;0.85;;
40745;SDS011;26454;51.164;4.488;2023-08-07T13:57:56;1.92;;;1.08;;
40745;SDS011;26454;51.164;4.488;2023-08-07T14:00:22;2.22;;;1.27;;
40745;SDS011;26454;51.164;4.488;2023-08-07T14:02:48;1.17;;;1.00;;
40745;SDS011;26454;51.164;4.488;2023-08-07T14:05:14;3.20;;;1.35;;
40745;SDS011;26454;51.164;4.488;2023-08-07T14:07:40;2.15;;;0.95;;
40745;SDS011;26454;51.164;4.488;2023-08-07T14:10:06;5.07;;;1.15;;
40745;SDS011;26454;51.164;4.488;2023-08-07T14:12:32;2.63;;;0.93;;
40745;SDS011;26454;51.164;4.488;2023-08-07T14:14:58;4.53;;;1.15;;
40745;SDS011;26454;51.164;4.488;2023-08-07T14:17:24;1.33;;;0.90;;
40745;SDS011;26454;51.164;4.488;2023-08-07T14:19:50;2.65;;;1.17;;
40745;SDS011;26454;51.164;4.488;2023-08-07T14:22:16;1.05;;;0.77;;
40745;SDS011;26454;51.164;4.488;2023-08-07T14:24:42;3.00;;;0.98;;
40745;SDS011;26454;51.164;4.488;2023-08-07T14:27:08;7.20;;;1.27;;
40745;SDS011;26454;51.164;4.488;2023-08-07T14:29:34;3.28;;;1.00;;
40745;SDS011;26454;51.164;4.488;2023-08-07T14:32:00;5.43;;;1.42;;
40745;SDS011;26454;51.164;4.488;2023-08-07T14:34:27;1.50;;;0.60;;
40745;SDS011;26454;51.164;4.488;2023-08-07T14:36:53;6.05;;;0.85;;
40745;SDS011;26454;51.164;4.488;2023-08-07T14:39:19;4.93;;;0.75;;
40745;SDS011;26454;51.164;4.488;2023-08-07T14:41:46;2.92;;;1.00;;
40745;SDS011;26454;51.164;4.488;2023-08-07T14:44:13;3.97;;;1.02;;
40745;SDS011;26454;51.164;4.488;2023-08-07T14:46:39;3.25;;;1.20;;
40745;SDS011;26454;51.164;4.488;2023-08-07T14:49:05;1.70;;;0.75;;
40745;SDS011;26454;51.164;4.488;2023-08-07T14:51:31;2.90;;;0.88;;
40745;SDS011;26454;51.164;4.488;2023-08-07T14:53:57;2.03;;;0.70;;